Terminal Aerodrome Forecast
Issued by NWS Twin Cities, MN

Home | Current Version | Previous Version | Text Only | Print | Product List | Glossary On
Versions: 1 2 3 4 5 6 7 8 9 10 11 12 13 14 15 16 17 18 19 20 21 22 23 24 25 26
000
FTUS43 KMPX 060526
TAFMSP
TAF
KMSP 060526Z 0606/0712 19010KT 5SM TSRA BR BKN030CB OVC050
      TEMPO 0606/0610 3/4SM +TSRA BR BKN008CB OVC015
     FM061000 05007KT 4SM TSRA BR SCT008 OVC012CB
     FM061700 34013G22KT 6SM SHRA BR VCTS SCT015 OVC025CB
     FM062300 34013G20KT P6SM BKN100
     FM070300 33008KT P6SM SKC=

USA.gov is the U.S. government's official web portal to all federal, state and local government web resources and services.